sensor_id;sensor_type;location;lat;lon;timestamp;pressure;altitude;pressure_sealevel;temperature;humidity
59519;BME280;46994;54.976;73.404;2022-08-04T00:02:24;100783.34;;;16.29;70.97
59519;BME280;46994;54.976;73.404;2022-08-04T00:05:02;100789.19;;;16.33;70.78
59519;BME280;46994;54.976;73.404;2022-08-04T00:10:06;100788.75;;;16.29;70.64
59519;BME280;46994;54.976;73.404;2022-08-04T00:12:37;100789.19;;;16.33;71.00
59519;BME280;46994;54.976;73.404;2022-08-04T00:15:09;100787.28;;;16.27;70.81
59519;BME280;46994;54.976;73.404;2022-08-04T00:18:00;100759.38;;;16.20;70.58
59519;BME280;46994;54.976;73.404;2022-08-04T00:20:30;100759.59;;;16.25;70.84
59519;BME280;46994;54.976;73.404;2022-08-04T00:22:58;100771.72;;;16.35;70.42
59519;BME280;46994;54.976;73.404;2022-08-04T00:25:26;100755.03;;;16.32;70.57
59519;BME280;46994;54.976;73.404;2022-08-04T00:27:54;100782.59;;;16.49;70.46
59519;BME280;46994;54.976;73.404;2022-08-04T00:30:20;100765.06;;;16.38;69.99
59519;BME280;46994;54.976;73.404;2022-08-04T00:32:48;100769.69;;;16.51;69.86
59519;BME280;46994;54.976;73.404;2022-08-04T00:35:16;100761.97;;;16.48;69.74
59519;BME280;46994;54.976;73.404;2022-08-04T00:37:44;100788.09;;;16.69;69.67
59519;BME280;46994;54.976;73.404;2022-08-04T00:40:35;100766.84;;;16.66;69.49
59519;BME280;46994;54.976;73.404;2022-08-04T00:48:58;100776.31;;;17.09;67.92
59519;BME280;46994;54.976;73.404;2022-08-04T00:51:49;100762.78;;;17.09;67.59
59519;BME280;46994;54.976;73.404;2022-08-04T00:54:33;100784.06;;;17.32;67.48
59519;BME280;46994;54.976;73.404;2022-08-04T01:00:21;100793.44;;;17.56;66.40
59519;BME280;46994;54.976;73.404;2022-08-04T01:05:56;100781.97;;;17.61;65.93
59519;BME280;46994;54.976;73.404;2022-08-04T01:08:41;100787.41;;;17.74;65.70
59519;BME280;46994;54.976;73.404;2022-08-04T01:20:08;100801.31;;;18.04;65.12
59519;BME280;46994;54.976;73.404;2022-08-04T01:26:06;100800.66;;;18.22;64.34
59519;BME280;46994;54.976;73.404;2022-08-04T01:32:07;100808.16;;;18.26;64.27
59519;BME280;46994;54.976;73.404;2022-08-04T01:34:46;100785.00;;;18.17;64.02
59519;BME280;46994;54.976;73.404;2022-08-04T01:40:06;100793.13;;;18.30;63.77
59519;BME280;46994;54.976;73.404;2022-08-04T01:42:35;100810.56;;;18.48;63.46
59519;BME280;46994;54.976;73.404;2022-08-04T01:45:07;100795.78;;;18.44;63.02
59519;BME280;46994;54.976;73.404;2022-08-04T01:47:37;100822.00;;;18.63;63.21
59519;BME280;46994;54.976;73.404;2022-08-04T01:50:08;100818.47;;;18.69;62.53
59519;BME280;46994;54.976;73.404;2022-08-04T01:52:37;100819.91;;;18.78;62.85
59519;BME280;46994;54.976;73.404;2022-08-04T01:55:10;100824.63;;;18.89;62.24
59519;BME280;46994;54.976;73.404;2022-08-04T01:57:45;100800.81;;;18.91;62.39
59519;BME280;46994;54.976;73.404;2022-08-04T02:00:18;100818.28;;;19.02;62.94
59519;BME280;46994;54.976;73.404;2022-08-04T02:02:45;100799.03;;;19.04;63.04
59519;BME280;46994;54.976;73.404;2022-08-04T02:05:17;100806.06;;;19.18;61.62
59519;BME280;46994;54.976;73.404;2022-08-04T02:08:04;100827.94;;;19.30;62.01
59519;BME280;46994;54.976;73.404;2022-08-04T02:16:23;100808.47;;;19.33;61.15
59519;BME280;46994;54.976;73.404;2022-08-04T02:22:00;100795.81;;;19.45;61.10
59519;BME280;46994;54.976;73.404;2022-08-04T02:24:31;100833.41;;;19.80;60.11
59519;BME280;46994;54.976;73.404;2022-08-04T02:27:00;100823.38;;;19.80;60.34
59519;BME280;46994;54.976;73.404;2022-08-04T02:29:38;100833.16;;;19.88;60.06
59519;BME280;46994;54.976;73.404;2022-08-04T02:32:14;100822.34;;;19.99;59.63
59519;BME280;46994;54.976;73.404;2022-08-04T02:34:53;100810.88;;;19.97;59.94
59519;BME280;46994;54.976;73.404;2022-08-04T02:37:20;100812.66;;;20.03;59.74
59519;BME280;46994;54.976;73.404;2022-08-04T02:39:52;100810.41;;;20.00;60.02
59519;BME280;46994;54.976;73.404;2022-08-04T02:42:19;100812.16;;;20.13;59.89
59519;BME280;46994;54.976;73.404;2022-08-04T02:44:50;100820.31;;;20.31;59.54
59519;BME280;46994;54.976;73.404;2022-08-04T02:47:20;100815.41;;;20.40;58.05
59519;BME280;46994;54.976;73.404;2022-08-04T02:49:49;100829.28;;;20.57;57.10
59519;BME280;46994;54.976;73.404;2022-08-04T02:52:22;100836.81;;;20.73;56.83
59519;BME280;46994;54.976;73.404;2022-08-04T02:54:53;100816.09;;;20.72;56.68
59519;BME280;46994;54.976;73.404;2022-08-04T02:57:23;100829.44;;;20.92;56.97
59519;BME280;46994;54.976;73.404;2022-08-04T03:00:08;100831.38;;;21.03;56.44
59519;BME280;46994;54.976;73.404;2022-08-04T03:14:19;100844.31;;;21.38;54.84
59519;BME280;46994;54.976;73.404;2022-08-04T03:22:13;100816.47;;;21.36;55.43
59519;BME280;46994;54.976;73.404;2022-08-04T03:28:00;100835.75;;;21.76;53.78
59519;BME280;46994;54.976;73.404;2022-08-04T03:33:20;100806.56;;;21.76;53.08
59519;BME280;46994;54.976;73.404;2022-08-04T03:41:36;100834.56;;;22.19;53.10
59519;BME280;46994;54.976;73.404;2022-08-04T03:50:47;100814.25;;;22.26;51.27
59519;BME280;46994;54.976;73.404;2022-08-04T04:00:08;100817.75;;;22.50;50.62
59519;BME280;46994;54.976;73.404;2022-08-04T04:08:34;100843.81;;;22.81;49.45
59519;BME280;46994;54.976;73.404;2022-08-04T04:17:08;100832.13;;;22.98;49.00
59519;BME280;46994;54.976;73.404;2022-08-04T04:29:12;100837.84;;;23.25;47.37
59519;BME280;46994;54.976;73.404;2022-08-04T04:31:58;100790.16;;;23.04;46.85
59519;BME280;46994;54.976;73.404;2022-08-04T04:37:36;100819.78;;;23.40;46.78
59519;BME280;46994;54.976;73.404;2022-08-04T04:43:28;100831.69;;;23.63;45.82
59519;BME280;46994;54.976;73.404;2022-08-04T04:46:14;100817.81;;;23.69;45.26
59519;BME280;46994;54.976;73.404;2022-08-04T04:49:03;100787.72;;;23.53;46.05
59519;BME280;46994;54.976;73.404;2022-08-04T04:51:40;100816.00;;;23.75;46.12
59519;BME280;46994;54.976;73.404;2022-08-04T04:54:38;100807.53;;;23.77;45.61
59519;BME280;46994;54.976;73.404;2022-08-04T04:57:12;100784.75;;;23.71;45.63
59519;BME280;46994;54.976;73.404;2022-08-04T04:59:49;100776.84;;;23.74;44.55
59519;BME280;46994;54.976;73.404;2022-08-04T05:02:35;100785.31;;;23.73;44.31
59519;BME280;46994;54.976;73.404;2022-08-04T05:13:47;100801.72;;;23.90;42.70
59519;BME280;46994;54.976;73.404;2022-08-04T05:16:26;100815.72;;;24.10;42.45
59519;BME280;46994;54.976;73.404;2022-08-04T05:19:23;100814.13;;;24.14;42.20
59519;BME280;46994;54.976;73.404;2022-08-04T05:22:06;100824.31;;;24.19;42.41
59519;BME280;46994;54.976;73.404;2022-08-04T05:24:38;100798.75;;;24.13;42.92
59519;BME280;46994;54.976;73.404;2022-08-04T05:27:25;100814.09;;;24.31;42.48
59519;BME280;46994;54.976;73.404;2022-08-04T05:30:03;100785.63;;;24.15;42.31
59519;BME280;46994;54.976;73.404;2022-08-04T05:32:54;100812.31;;;24.42;41.65
59519;BME280;46994;54.976;73.404;2022-08-04T05:35:31;100799.38;;;24.37;42.39
59519;BME280;46994;54.976;73.404;2022-08-04T05:38:01;100798.63;;;24.42;41.93
59519;BME280;46994;54.976;73.404;2022-08-04T05:40:29;100755.78;;;24.14;42.29
59519;BME280;46994;54.976;73.404;2022-08-04T05:42:56;100763.28;;;24.23;42.19
59519;BME280;46994;54.976;73.404;2022-08-04T05:45:24;100771.09;;;24.31;42.56
59519;BME280;46994;54.976;73.404;2022-08-04T05:47:52;100800.09;;;24.49;42.35
59519;BME280;46994;54.976;73.404;2022-08-04T05:50:19;100766.19;;;24.34;41.75
59519;BME280;46994;54.976;73.404;2022-08-04T05:52:48;100772.50;;;24.34;41.47
59519;BME280;46994;54.976;73.404;2022-08-04T05:55:16;100776.53;;;24.48;41.66
59519;BME280;46994;54.976;73.404;2022-08-04T05:57:44;100758.59;;;24.41;40.93
59519;BME280;46994;54.976;73.404;2022-08-04T06:00:15;100763.88;;;24.47;41.02
59519;BME280;46994;54.976;73.404;2022-08-04T06:02:45;100746.88;;;24.45;41.19
59519;BME280;46994;54.976;73.404;2022-08-04T06:05:14;100762.28;;;24.51;41.72
59519;BME280;46994;54.976;73.404;2022-08-04T06:07:44;100759.56;;;24.51;41.34
59519;BME280;46994;54.976;73.404;2022-08-04T06:10:11;100763.13;;;24.52;41.78
59519;BME280;46994;54.976;73.404;2022-08-04T06:12:48;100774.19;;;24.62;42.43
59519;BME280;46994;54.976;73.404;2022-08-04T06:15:19;100764.16;;;24.73;41.81
59519;BME280;46994;54.976;73.404;2022-08-04T06:17:53;100761.53;;;24.83;42.71
59519;BME280;46994;54.976;73.404;2022-08-04T06:20:25;100778.72;;;25.00;41.50
59519;BME280;46994;54.976;73.404;2022-08-04T06:22:56;100761.59;;;24.88;41.24
59519;BME280;46994;54.976;73.404;2022-08-04T06:25:28;100775.66;;;24.97;40.88
59519;BME280;46994;54.976;73.404;2022-08-04T06:27:57;100737.16;;;24.86;41.18
59519;BME280;46994;54.976;73.404;2022-08-04T06:30:29;100780.03;;;25.20;40.93
59519;BME280;46994;54.976;73.404;2022-08-04T06:32:59;100745.19;;;24.93;40.63
59519;BME280;46994;54.976;73.404;2022-08-04T06:35:29;100774.47;;;25.14;40.66
59519;BME280;46994;54.976;73.404;2022-08-04T06:37:58;100766.00;;;25.16;39.77
59519;BME280;46994;54.976;73.404;2022-08-04T06:40:26;100733.25;;;25.04;39.86
59519;BME280;46994;54.976;73.404;2022-08-04T06:42:54;100767.22;;;25.30;39.97
59519;BME280;46994;54.976;73.404;2022-08-04T06:45:22;100728.31;;;25.06;40.00
59519;BME280;46994;54.976;73.404;2022-08-04T06:47:50;100747.06;;;25.14;38.76
59519;BME280;46994;54.976;73.404;2022-08-04T06:50:19;100733.50;;;25.03;38.78
59519;BME280;46994;54.976;73.404;2022-08-04T06:52:46;100725.28;;;25.03;39.05
59519;BME280;46994;54.976;73.404;2022-08-04T06:55:13;100734.69;;;25.12;39.10
59519;BME280;46994;54.976;73.404;2022-08-04T06:57:40;100729.50;;;25.15;39.45
59519;BME280;46994;54.976;73.404;2022-08-04T07:00:10;100751.66;;;25.41;38.96
59519;BME280;46994;54.976;73.404;2022-08-04T07:02:50;100766.03;;;25.53;39.76
59519;BME280;46994;54.976;73.404;2022-08-04T07:05:18;100778.63;;;25.49;39.73
59519;BME280;46994;54.976;73.404;2022-08-04T07:07:45;100763.19;;;25.43;39.13
59519;BME280;46994;54.976;73.404;2022-08-04T07:10:13;100729.59;;;25.26;39.20
59519;BME280;46994;54.976;73.404;2022-08-04T07:12:40;100764.63;;;25.51;38.43
59519;BME280;46994;54.976;73.404;2022-08-04T07:15:07;100739.25;;;25.33;37.73
59519;BME280;46994;54.976;73.404;2022-08-04T07:17:35;100738.22;;;25.44;37.78
59519;BME280;46994;54.976;73.404;2022-08-04T07:20:04;100762.56;;;25.68;37.21
59519;BME280;46994;54.976;73.404;2022-08-04T07:22:31;100746.38;;;25.66;38.43
59519;BME280;46994;54.976;73.404;2022-08-04T07:24:58;100746.06;;;25.63;37.42
59519;BME280;46994;54.976;73.404;2022-08-04T07:27:26;100725.25;;;25.35;38.07
59519;BME280;46994;54.976;73.404;2022-08-04T07:29:53;100750.94;;;25.56;37.40
59519;BME280;46994;54.976;73.404;2022-08-04T07:32:21;100735.88;;;25.58;38.26
59519;BME280;46994;54.976;73.404;2022-08-04T07:34:49;100723.19;;;25.52;36.69
59519;BME280;46994;54.976;73.404;2022-08-04T07:37:17;100758.56;;;25.86;36.78
59519;BME280;46994;54.976;73.404;2022-08-04T07:39:45;100730.22;;;25.75;37.18
59519;BME280;46994;54.976;73.404;2022-08-04T07:42:12;100749.00;;;25.93;36.88
59519;BME280;46994;54.976;73.404;2022-08-04T07:44:39;100714.63;;;25.81;37.00
59519;BME280;46994;54.976;73.404;2022-08-04T07:47:06;100742.19;;;26.01;37.81
59519;BME280;46994;54.976;73.404;2022-08-04T07:49:34;100712.75;;;25.86;38.19
59519;BME280;46994;54.976;73.404;2022-08-04T07:52:03;100714.41;;;25.92;37.27
59519;BME280;46994;54.976;73.404;2022-08-04T07:54:30;100723.78;;;26.01;36.64
59519;BME280;46994;54.976;73.404;2022-08-04T07:56:58;100751.31;;;26.12;36.30
59519;BME280;46994;54.976;73.404;2022-08-04T07:59:25;100733.13;;;26.00;37.43
59519;BME280;46994;54.976;73.404;2022-08-04T08:01:53;100724.56;;;25.92;36.64
59519;BME280;46994;54.976;73.404;2022-08-04T08:04:21;100722.63;;;25.87;36.59
59519;BME280;46994;54.976;73.404;2022-08-04T08:06:50;100727.59;;;25.90;36.92
59519;BME280;46994;54.976;73.404;2022-08-04T08:09:18;100719.00;;;25.82;37.12
59519;BME280;46994;54.976;73.404;2022-08-04T08:11:48;100708.84;;;25.82;36.50
59519;BME280;46994;54.976;73.404;2022-08-04T08:14:16;100722.38;;;25.94;35.64
59519;BME280;46994;54.976;73.404;2022-08-04T08:16:44;100708.63;;;25.89;37.10
59519;BME280;46994;54.976;73.404;2022-08-04T08:19:11;100727.03;;;25.93;36.24
59519;BME280;46994;54.976;73.404;2022-08-04T08:21:39;100692.84;;;25.69;37.02
59519;BME280;46994;54.976;73.404;2022-08-04T08:24:06;100711.38;;;25.89;36.92
59519;BME280;46994;54.976;73.404;2022-08-04T08:26:34;100722.97;;;25.96;37.05
59519;BME280;46994;54.976;73.404;2022-08-04T08:29:02;100705.06;;;25.88;36.79
59519;BME280;46994;54.976;73.404;2022-08-04T08:31:29;100731.78;;;26.08;36.21
59519;BME280;46994;54.976;73.404;2022-08-04T08:33:56;100740.03;;;26.13;35.69
59519;BME280;46994;54.976;73.404;2022-08-04T08:36:34;100729.59;;;26.15;35.92
59519;BME280;46994;54.976;73.404;2022-08-04T08:39:38;100730.97;;;26.13;35.63
59519;BME280;46994;54.976;73.404;2022-08-04T08:42:26;100733.16;;;26.11;36.72
59519;BME280;46994;54.976;73.404;2022-08-04T08:50:51;100696.09;;;26.13;37.19
59519;BME280;46994;54.976;73.404;2022-08-04T09:00:11;100722.50;;;26.24;37.48
59519;BME280;46994;54.976;73.404;2022-08-04T09:05:28;100722.81;;;26.33;37.90
59519;BME280;46994;54.976;73.404;2022-08-04T09:11:11;100707.63;;;26.15;38.00
59519;BME280;46994;54.976;73.404;2022-08-04T09:14:14;100706.00;;;26.19;38.00
59519;BME280;46994;54.976;73.404;2022-08-04T09:16:58;100731.38;;;26.37;37.64
59519;BME280;46994;54.976;73.404;2022-08-04T09:19:51;100730.53;;;26.36;36.63
59519;BME280;46994;54.976;73.404;2022-08-04T09:22:28;100728.31;;;26.33;36.92
59519;BME280;46994;54.976;73.404;2022-08-04T09:25:08;100711.50;;;26.19;36.89
59519;BME280;46994;54.976;73.404;2022-08-04T09:27:53;100709.59;;;26.25;37.07
59519;BME280;46994;54.976;73.404;2022-08-04T09:31:04;100732.97;;;26.33;36.62
59519;BME280;46994;54.976;73.404;2022-08-04T09:39:26;100720.88;;;26.28;36.34
59519;BME280;46994;54.976;73.404;2022-08-04T09:42:19;100723.91;;;26.27;36.74
59519;BME280;46994;54.976;73.404;2022-08-04T09:47:48;100697.78;;;26.24;36.59
59519;BME280;46994;54.976;73.404;2022-08-04T09:56:07;100718.69;;;26.25;36.14
59519;BME280;46994;54.976;73.404;2022-08-04T09:58:39;100727.75;;;26.26;35.65
59519;BME280;46994;54.976;73.404;2022-08-04T10:01:13;100705.94;;;26.04;35.98
59519;BME280;46994;54.976;73.404;2022-08-04T10:03:48;100693.81;;;25.95;36.28
59519;BME280;46994;54.976;73.404;2022-08-04T10:06:35;100723.56;;;26.08;36.25
59519;BME280;46994;54.976;73.404;2022-08-04T10:23:00;100682.53;;;25.91;37.23
59519;BME280;46994;54.976;73.404;2022-08-04T10:28:23;100690.00;;;25.96;36.98
59519;BME280;46994;54.976;73.404;2022-08-04T10:31:12;100712.56;;;26.08;37.14
59519;BME280;46994;54.976;73.404;2022-08-04T10:33:49;100721.63;;;26.09;37.76
59519;BME280;46994;54.976;73.404;2022-08-04T10:36:22;100702.63;;;26.02;37.96
59519;BME280;46994;54.976;73.404;2022-08-04T10:39:04;100677.03;;;25.86;38.14
59519;BME280;46994;54.976;73.404;2022-08-04T10:41:41;100703.72;;;26.01;37.65
59519;BME280;46994;54.976;73.404;2022-08-04T10:44:36;100706.47;;;25.96;37.55
59519;BME280;46994;54.976;73.404;2022-08-04T10:47:15;100662.63;;;25.69;37.40
59519;BME280;46994;54.976;73.404;2022-08-04T10:49:57;100701.50;;;25.88;38.21
59519;BME280;46994;54.976;73.404;2022-08-04T10:52:41;100693.75;;;25.80;38.03
59519;BME280;46994;54.976;73.404;2022-08-04T10:55:22;100703.88;;;25.74;37.84
59519;BME280;46994;54.976;73.404;2022-08-04T10:58:01;100703.31;;;25.72;38.12
59519;BME280;46994;54.976;73.404;2022-08-04T11:00:35;100700.84;;;25.70;37.66
59519;BME280;46994;54.976;73.404;2022-08-04T11:03:12;100703.31;;;25.72;38.41
59519;BME280;46994;54.976;73.404;2022-08-04T11:05:55;100699.44;;;25.68;38.34
59519;BME280;46994;54.976;73.404;2022-08-04T11:08:28;100695.28;;;25.65;38.51
59519;BME280;46994;54.976;73.404;2022-08-04T11:11:14;100679.56;;;25.51;38.65
59519;BME280;46994;54.976;73.404;2022-08-04T11:14:06;100685.31;;;25.54;38.74
59519;BME280;46994;54.976;73.404;2022-08-04T11:16:51;100664.13;;;25.44;38.74
59519;BME280;46994;54.976;73.404;2022-08-04T11:22:08;100679.50;;;25.45;39.98
59519;BME280;46994;54.976;73.404;2022-08-04T11:24:45;100696.84;;;25.51;39.34
59519;BME280;46994;54.976;73.404;2022-08-04T11:27:24;100684.75;;;25.47;39.59
59519;BME280;46994;54.976;73.404;2022-08-04T11:30:00;100698.78;;;25.56;40.59
59519;BME280;46994;54.976;73.404;2022-08-04T11:32:41;100675.94;;;25.45;39.34
59519;BME280;46994;54.976;73.404;2022-08-04T11:35:15;100683.94;;;25.52;39.03
59519;BME280;46994;54.976;73.404;2022-08-04T11:37:54;100691.34;;;25.51;39.28
59519;BME280;46994;54.976;73.404;2022-08-04T11:40:35;100665.72;;;25.35;39.67
59519;BME280;46994;54.976;73.404;2022-08-04T11:43:11;100696.28;;;25.49;39.34
59519;BME280;46994;54.976;73.404;2022-08-04T11:45:46;100694.63;;;25.48;38.80
59519;BME280;46994;54.976;73.404;2022-08-04T11:48:23;100658.84;;;25.28;38.79
59519;BME280;46994;54.976;73.404;2022-08-04T11:50:53;100685.50;;;25.37;39.20
59519;BME280;46994;54.976;73.404;2022-08-04T11:53:23;100667.63;;;25.30;38.64
59519;BME280;46994;54.976;73.404;2022-08-04T11:55:52;100685.81;;;25.41;38.59
59519;BME280;46994;54.976;73.404;2022-08-04T11:58:20;100689.09;;;25.38;38.87
59519;BME280;46994;54.976;73.404;2022-08-04T12:00:57;100659.59;;;25.23;38.91
59519;BME280;46994;54.976;73.404;2022-08-04T12:11:53;100663.78;;;25.31;38.92
59519;BME280;46994;54.976;73.404;2022-08-04T12:14:57;100668.72;;;25.34;38.66
59519;BME280;46994;54.976;73.404;2022-08-04T12:17:30;100661.56;;;25.28;38.83
59519;BME280;46994;54.976;73.404;2022-08-04T12:20:02;100674.19;;;25.29;38.47
59519;BME280;46994;54.976;73.404;2022-08-04T12:22:43;100676.13;;;25.28;38.37
59519;BME280;46994;54.976;73.404;2022-08-04T12:25:15;100662.63;;;25.27;38.71
59519;BME280;46994;54.976;73.404;2022-08-04T12:30:18;100651.03;;;25.14;38.28
59519;BME280;46994;54.976;73.404;2022-08-04T12:33:19;100679.69;;;25.29;38.01
59519;BME280;46994;54.976;73.404;2022-08-04T12:35:57;100635.28;;;25.00;37.97
59519;BME280;46994;54.976;73.404;2022-08-04T12:38:28;100623.41;;;24.89;37.96
59519;BME280;46994;54.976;73.404;2022-08-04T12:40:59;100673.03;;;25.20;37.59
59519;BME280;46994;54.976;73.404;2022-08-04T12:43:40;100656.25;;;25.16;37.46
59519;BME280;46994;54.976;73.404;2022-08-04T12:46:09;100677.22;;;25.32;37.92
59519;BME280;46994;54.976;73.404;2022-08-04T12:48:38;100667.56;;;25.25;38.54
59519;BME280;46994;54.976;73.404;2022-08-04T12:51:09;100659.00;;;25.16;38.33
59519;BME280;46994;54.976;73.404;2022-08-04T12:53:38;100674.69;;;25.21;38.52
59519;BME280;46994;54.976;73.404;2022-08-04T12:56:08;100679.38;;;25.25;38.37
59519;BME280;46994;54.976;73.404;2022-08-04T12:58:42;100674.16;;;25.24;38.83
59519;BME280;46994;54.976;73.404;2022-08-04T13:06:15;100682.66;;;26.17;36.26
59519;BME280;46994;54.976;73.404;2022-08-04T13:08:45;100667.09;;;26.48;35.73
59519;BME280;46994;54.976;73.404;2022-08-04T13:11:14;100680.94;;;27.14;34.60
59519;BME280;46994;54.976;73.404;2022-08-04T13:13:43;100684.19;;;27.47;33.76
59519;BME280;46994;54.976;73.404;2022-08-04T13:16:11;100681.41;;;27.57;33.65
59519;BME280;46994;54.976;73.404;2022-08-04T13:18:40;100682.78;;;27.64;34.06
59519;BME280;46994;54.976;73.404;2022-08-04T13:21:18;100698.38;;;27.99;33.81
59519;BME280;46994;54.976;73.404;2022-08-04T13:23:50;100690.91;;;28.05;34.14
59519;BME280;46994;54.976;73.404;2022-08-04T13:26:18;100691.53;;;27.87;34.43
59519;BME280;46994;54.976;73.404;2022-08-04T13:28:48;100689.63;;;27.72;34.42
59519;BME280;46994;54.976;73.404;2022-08-04T13:31:22;100701.53;;;27.47;34.44
59519;BME280;46994;54.976;73.404;2022-08-04T13:34:01;100702.66;;;27.26;35.02
59519;BME280;46994;54.976;73.404;2022-08-04T13:36:29;100691.09;;;27.29;35.39
59519;BME280;46994;54.976;73.404;2022-08-04T13:39:01;100704.50;;;27.61;35.18
59519;BME280;46994;54.976;73.404;2022-08-04T13:41:29;100700.63;;;27.82;34.55
59519;BME280;46994;54.976;73.404;2022-08-04T13:43:58;100696.47;;;27.90;34.93
59519;BME280;46994;54.976;73.404;2022-08-04T13:46:37;100696.63;;;28.24;34.52
59519;BME280;46994;54.976;73.404;2022-08-04T13:49:09;100688.69;;;28.02;34.30
59519;BME280;46994;54.976;73.404;2022-08-04T13:51:38;100688.81;;;27.71;35.06
59519;BME280;46994;54.976;73.404;2022-08-04T13:54:05;100694.09;;;27.37;35.63
59519;BME280;46994;54.976;73.404;2022-08-04T13:56:42;100687.78;;;27.32;36.07
59519;BME280;46994;54.976;73.404;2022-08-04T14:00:03;100639.63;;;26.88;36.19
59519;BME280;46994;54.976;73.404;2022-08-04T14:07:32;100698.53;;;28.34;34.68
59519;BME280;46994;54.976;73.404;2022-08-04T14:10:10;100715.06;;;28.34;34.52
59519;BME280;46994;54.976;73.404;2022-08-04T14:12:49;100698.97;;;27.86;35.06
59519;BME280;46994;54.976;73.404;2022-08-04T14:15:31;100677.06;;;27.20;35.70
59519;BME280;46994;54.976;73.404;2022-08-04T14:18:17;100709.75;;;26.91;36.87
59519;BME280;46994;54.976;73.404;2022-08-04T14:21:15;100712.97;;;26.37;37.77
59519;BME280;46994;54.976;73.404;2022-08-04T14:23:55;100677.22;;;25.74;38.46
59519;BME280;46994;54.976;73.404;2022-08-04T14:26:25;100699.03;;;25.49;39.34
59519;BME280;46994;54.976;73.404;2022-08-04T14:28:54;100713.72;;;25.28;39.77
59519;BME280;46994;54.976;73.404;2022-08-04T14:31:25;100685.84;;;24.82;40.13
59519;BME280;46994;54.976;73.404;2022-08-04T14:33:53;100702.97;;;24.67;41.11
59519;BME280;46994;54.976;73.404;2022-08-04T14:36:21;100727.78;;;24.55;41.34
59519;BME280;46994;54.976;73.404;2022-08-04T14:41:24;100719.06;;;24.15;42.31
59519;BME280;46994;54.976;73.404;2022-08-04T14:43:57;100723.03;;;24.02;43.02
59519;BME280;46994;54.976;73.404;2022-08-04T14:46:26;100724.66;;;23.81;43.13
59519;BME280;46994;54.976;73.404;2022-08-04T14:49:02;100738.44;;;23.69;44.68
59519;BME280;46994;54.976;73.404;2022-08-04T14:51:54;100737.88;;;23.51;44.47
59519;BME280;46994;54.976;73.404;2022-08-04T14:54:31;100712.75;;;23.20;45.40
59519;BME280;46994;54.976;73.404;2022-08-04T14:57:06;100715.25;;;23.05;45.37
59519;BME280;46994;54.976;73.404;2022-08-04T14:59:41;100719.47;;;22.96;45.31
59519;BME280;46994;54.976;73.404;2022-08-04T15:02:10;100731.38;;;22.89;46.22
59519;BME280;46994;54.976;73.404;2022-08-04T15:04:38;100748.75;;;22.83;46.54
59519;BME280;46994;54.976;73.404;2022-08-04T15:07:05;100733.28;;;22.60;46.71
59519;BME280;46994;54.976;73.404;2022-08-04T15:09:33;100757.66;;;22.62;47.01
59519;BME280;46994;54.976;73.404;2022-08-04T15:12:01;100730.97;;;22.41;46.93
59519;BME280;46994;54.976;73.404;2022-08-04T15:14:31;100747.03;;;22.37;48.10
59519;BME280;46994;54.976;73.404;2022-08-04T15:16:58;100732.72;;;22.18;47.85
59519;BME280;46994;54.976;73.404;2022-08-04T15:19:25;100746.84;;;22.15;48.27
59519;BME280;46994;54.976;73.404;2022-08-04T15:21:52;100742.34;;;22.09;48.44
59519;BME280;46994;54.976;73.404;2022-08-04T15:24:20;100741.19;;;21.93;48.74
59519;BME280;46994;54.976;73.404;2022-08-04T15:26:49;100756.34;;;22.01;48.57
59519;BME280;46994;54.976;73.404;2022-08-04T15:29:21;100745.56;;;21.83;48.78
59519;BME280;46994;54.976;73.404;2022-08-04T15:31:50;100748.44;;;21.76;50.41
59519;BME280;46994;54.976;73.404;2022-08-04T15:34:19;100749.84;;;21.67;50.05
59519;BME280;46994;54.976;73.404;2022-08-04T15:42:12;100776.41;;;21.60;50.52
59519;BME280;46994;54.976;73.404;2022-08-04T15:44:57;100778.66;;;21.51;50.82
59519;BME280;46994;54.976;73.404;2022-08-04T15:47:28;100777.97;;;21.44;50.55
59519;BME280;46994;54.976;73.404;2022-08-04T15:50:07;100768.56;;;21.40;51.40
59519;BME280;46994;54.976;73.404;2022-08-04T15:55:32;100761.63;;;21.14;51.19
59519;BME280;46994;54.976;73.404;2022-08-04T15:58:21;100774.31;;;21.20;51.18
59519;BME280;46994;54.976;73.404;2022-08-04T16:16:43;100775.25;;;20.84;51.98
59519;BME280;46994;54.976;73.404;2022-08-04T16:19:53;100781.66;;;20.78;52.50
59519;BME280;46994;54.976;73.404;2022-08-04T16:22:33;100756.19;;;20.54;52.30
59519;BME280;46994;54.976;73.404;2022-08-04T16:25:00;100751.44;;;20.49;52.97
59519;BME280;46994;54.976;73.404;2022-08-04T16:27:41;100746.91;;;20.43;52.79
59519;BME280;46994;54.976;73.404;2022-08-04T16:30:13;100779.31;;;20.63;52.97
59519;BME280;46994;54.976;73.404;2022-08-04T16:32:42;100775.50;;;20.52;52.94
59519;BME280;46994;54.976;73.404;2022-08-04T16:35:24;100770.78;;;20.41;53.48
59519;BME280;46994;54.976;73.404;2022-08-04T16:38:12;100719.09;;;20.04;53.17
59519;BME280;46994;54.976;73.404;2022-08-04T16:40:40;100759.00;;;20.29;53.12
59519;BME280;46994;54.976;73.404;2022-08-04T16:43:15;100794.47;;;20.41;53.43
59519;BME280;46994;54.976;73.404;2022-08-04T16:48:16;100772.91;;;20.21;53.71
59519;BME280;46994;54.976;73.404;2022-08-04T16:53:20;100769.19;;;20.15;54.41
59519;BME280;46994;54.976;73.404;2022-08-04T16:55:49;100777.59;;;20.14;54.14
59519;BME280;46994;54.976;73.404;2022-08-04T16:58:24;100767.25;;;20.04;54.20
59519;BME280;46994;54.976;73.404;2022-08-04T17:00:51;100790.16;;;20.15;54.55
59519;BME280;46994;54.976;73.404;2022-08-04T17:03:18;100767.94;;;19.99;55.14